Time;durP1;ratioP1;P1;durP2;ratioP2;P2;SDS_P1;SDS_P2;PMS_P1;PMS_P2;Temp;Humidity;BMP_temperature;BMP_pressure;BME280_temperature;BME280_humidity;BME280_pressure;Samples;Min_cycle;Max_cycle;Signal;HPM_P1;HPM_P2
2021/12/27 00:03:03;;;;;;;13.20;6.10;;;7.80;98.90;;;;;;10112908;28;20376;-66
2021/12/27 00:07:54;;;;;;;12.70;5.82;;;7.80;99.00;;;;;;10122207;28;20137;-69
2021/12/27 00:12:45;;;;;;;12.20;5.70;;;7.80;98.90;;;;;;10114882;28;20470;-67
2021/12/27 00:17:39;;;;;;;10.32;6.15;;;7.90;99.00;;;;;;10108230;28;20075;-66
2021/12/27 00:22:29;;;;;;;8.00;4.85;;;7.80;98.90;;;;;;10115151;28;20036;-67
2021/12/27 00:27:20;;;;;;;10.90;5.45;;;7.90;99.00;;;;;;10129033;28;20065;-67
2021/12/27 00:32:12;;;;;;;9.75;4.57;;;7.90;98.90;;;;;;10124151;28;20383;-67
2021/12/27 00:37:05;;;;;;;10.50;4.97;;;7.90;99.00;;;;;;10126310;28;20082;-73
2021/12/27 00:41:55;;;;;;;6.93;4.20;;;7.90;99.00;;;;;;10120029;28;20443;-67
2021/12/27 00:46:46;;;;;;;7.47;4.40;;;7.90;99.10;;;;;;10119132;28;20029;-72
2021/12/27 00:51:37;;;;;;;6.40;3.85;;;7.90;99.20;;;;;;10120746;28;20119;-76
2021/12/27 00:56:27;;;;;;;7.50;3.95;;;8.00;99.20;;;;;;10131017;28;20021;-76
2021/12/27 01:01:18;;;;;;;7.45;3.72;;;8.00;99.20;;;;;;10099951;28;20086;-66
2021/12/27 01:06:09;;;;;;;6.68;3.97;;;8.00;99.20;;;;;;10131576;28;20020;-71
2021/12/27 01:16:10;;;;;;;5.93;4.40;;;8.10;99.20;;;;;;10113742;28;20041;-67
2021/12/27 01:21:01;;;;;;;5.47;2.92;;;8.00;99.20;;;;;;10110984;28;20044;-69
2021/12/27 01:25:52;;;;;;;7.03;4.05;;;8.10;99.20;;;;;;10119233;28;20096;-66
2021/12/27 01:30:47;;;;;;;6.70;3.33;;;8.10;99.30;;;;;;10128108;28;20509;-70
2021/12/27 01:35:38;;;;;;;7.60;3.92;;;8.10;99.20;;;;;;10118704;28;20111;-69
2021/12/27 01:40:29;;;;;;;6.85;4.78;;;8.10;99.20;;;;;;10121934;28;20135;-65
2021/12/27 01:45:24;;;;;;;5.20;2.95;;;8.00;99.30;;;;;;10119620;28;20017;-74
2021/12/27 01:50:15;;;;;;;5.47;3.37;;;8.10;99.30;;;;;;10108860;28;20497;-68
2021/12/27 01:55:06;;;;;;;6.78;4.30;;;8.20;99.40;;;;;;10115785;28;20059;-66
2021/12/27 01:59:57;;;;;;;6.45;3.60;;;8.20;99.30;;;;;;10117665;28;20040;-68
2021/12/27 02:04:47;;;;;;;7.05;3.58;;;8.20;99.30;;;;;;10125344;28;20047;-67
2021/12/27 02:09:49;;;;;;;6.72;3.22;;;8.20;99.40;;;;;;10126857;28;20075;-66
2021/12/27 02:14:39;;;;;;;7.63;3.22;;;8.30;99.50;;;;;;10129296;28;20131;-66
2021/12/27 02:19:30;;;;;;;6.38;3.05;;;8.30;99.50;;;;;;10113246;28;20130;-66
2021/12/27 02:24:21;;;;;;;5.07;3.17;;;8.30;99.60;;;;;;10106360;28;20028;-65
2021/12/27 02:29:11;;;;;;;4.97;3.20;;;8.30;99.50;;;;;;10127616;28;20031;-66
2021/12/27 02:34:02;;;;;;;4.47;2.75;;;8.30;99.60;;;;;;10110567;28;20020;-67
2021/12/27 02:38:53;;;;;;;5.05;3.70;;;8.40;99.60;;;;;;10118874;28;20032;-66
2021/12/27 02:43:44;;;;;;;4.00;2.47;;;8.30;99.60;;;;;;10124757;28;20071;-66
2021/12/27 02:48:40;;;;;;;7.40;3.13;;;8.40;99.70;;;;;;10117878;28;20066;-76
2021/12/27 02:53:31;;;;;;;5.90;4.13;;;8.40;99.70;;;;;;10113878;28;20383;-70
2021/12/27 02:58:22;;;;;;;4.45;3.03;;;8.40;99.60;;;;;;10110510;28;20123;-69
2021/12/27 03:03:13;;;;;;;4.20;2.67;;;8.40;99.60;;;;;;10116281;28;20009;-72
2021/12/27 03:08:04;;;;;;;7.55;3.45;;;8.40;99.70;;;;;;10112682;28;21181;-68
2021/12/27 03:12:56;;;;;;;3.20;2.45;;;8.40;99.70;;;;;;10126017;28;20435;-72
2021/12/27 03:17:48;;;;;;;5.53;2.60;;;8.40;99.70;;;;;;10139776;28;20118;-66
2021/12/27 03:22:43;;;;;;;4.60;2.65;;;8.40;99.70;;;;;;10149495;28;20036;-67
2021/12/27 03:27:33;;;;;;;3.03;2.33;;;8.40;99.70;;;;;;10163745;28;20492;-66
2021/12/27 03:32:24;;;;;;;3.90;2.40;;;8.50;99.70;;;;;;10159725;28;20029;-66
2021/12/27 03:37:15;;;;;;;3.58;2.22;;;8.40;99.70;;;;;;10157322;28;20109;-66
2021/12/27 03:42:05;;;;;;;5.15;3.10;;;8.40;99.60;;;;;;10156432;28;20040;-67
2021/12/27 03:46:56;;;;;;;2.90;2.28;;;8.40;99.60;;;;;;10158322;28;20115;-65
2021/12/27 03:51:47;;;;;;;3.95;2.10;;;8.30;99.70;;;;;;10167113;28;20020;-67
2021/12/27 03:56:37;;;;;;;5.97;3.10;;;8.30;99.70;;;;;;10153808;28;20216;-65
2021/12/27 04:01:29;;;;;;;4.03;2.25;;;8.30;99.70;;;;;;10172549;28;20819;-65
2021/12/27 04:06:21;;;;;;;4.95;2.38;;;8.30;99.70;;;;;;10155504;28;20108;-65
2021/12/27 04:11:13;;;;;;;4.97;2.30;;;8.20;99.80;;;;;;10169990;28;20036;-67
2021/12/27 04:16:04;;;;;;;2.90;2.08;;;8.30;99.80;;;;;;10158708;28;20184;-67
2021/12/27 04:20:55;;;;;;;3.47;2.10;;;8.30;99.80;;;;;;10104097;28;20403;-67
2021/12/27 04:25:48;;;;;;;4.75;3.15;;;8.40;99.80;;;;;;10128121;28;20032;-65
2021/12/27 04:30:39;;;;;;;5.28;2.38;;;8.40;99.70;;;;;;10104878;28;20087;-68
2021/12/27 04:35:30;;;;;;;3.40;2.47;;;8.30;99.60;;;;;;10092514;28;20037;-67
2021/12/27 04:40:23;;;;;;;3.70;1.90;;;8.30;99.70;;;;;;10122947;28;20420;-70
2021/12/27 04:45:15;;;;;;;3.63;2.50;;;8.30;99.70;;;;;;10105539;28;20044;-66
2021/12/27 04:50:05;;;;;;;4.03;2.38;;;8.30;99.80;;;;;;10101626;28;20470;-66
2021/12/27 04:54:56;;;;;;;3.20;2.28;;;8.30;99.70;;;;;;10117711;28;20028;-67
2021/12/27 04:59:47;;;;;;;2.95;2.15;;;8.30;99.70;;;;;;10125085;28;20067;-66
2021/12/27 05:04:38;;;;;;;3.45;2.15;;;8.30;99.70;;;;;;10126064;28;20491;-68
2021/12/27 05:09:29;;;;;;;3.00;1.65;;;8.30;99.70;;;;;;10118714;28;20025;-74
2021/12/27 05:14:20;;;;;;;5.07;2.47;;;8.20;99.70;;;;;;10122694;28;20736;-74
2021/12/27 05:19:11;;;;;;;4.45;2.42;;;8.20;99.50;;;;;;10124817;28;20132;-73
2021/12/27 05:24:02;;;;;;;4.00;2.50;;;8.10;99.60;;;;;;10116274;28;20033;-66
2021/12/27 05:28:52;;;;;;;4.75;3.10;;;8.10;99.60;;;;;;10117707;28;20027;-66
2021/12/27 05:33:43;;;;;;;4.38;2.85;;;8.10;99.60;;;;;;10123010;28;20029;-71
2021/12/27 05:38:34;;;;;;;5.40;2.65;;;8.10;99.60;;;;;;10127098;28;20395;-67
2021/12/27 05:43:26;;;;;;;5.80;3.28;;;8.10;99.70;;;;;;10123467;28;20176;-65
2021/12/27 05:48:17;;;;;;;3.72;2.75;;;8.10;99.70;;;;;;10122795;28;20023;-65
2021/12/27 05:53:07;;;;;;;3.35;2.20;;;8.10;99.80;;;;;;10111490;28;20179;-70
2021/12/27 05:57:58;;;;;;;3.63;2.38;;;8.20;99.80;;;;;;10127735;28;20088;-69
2021/12/27 06:02:51;;;;;;;5.43;3.15;;;8.20;99.80;;;;;;10105011;28;20029;-76
2021/12/27 06:07:42;;;;;;;2.95;1.65;;;8.20;99.80;;;;;;10124001;28;20040;-66
2021/12/27 06:12:33;;;;;;;5.30;2.63;;;8.30;99.90;;;;;;10123743;28;20032;-66
2021/12/27 06:17:24;;;;;;;2.83;1.95;;;8.30;99.80;;;;;;10127514;28;20075;-68
2021/12/27 06:22:15;;;;;;;3.08;1.98;;;8.30;99.80;;;;;;10125271;28;20543;-66
2021/12/27 06:27:06;;;;;;;2.13;1.92;;;8.30;99.90;;;;;;10129888;28;20036;-66
2021/12/27 06:31:56;;;;;;;4.72;2.22;;;8.40;99.80;;;;;;10124292;28;20040;-66
2021/12/27 06:36:47;;;;;;;2.13;1.48;;;8.40;99.80;;;;;;10117884;28;20033;-67
2021/12/27 06:41:38;;;;;;;4.47;2.00;;;8.30;99.70;;;;;;10105903;28;20127;-66
2021/12/27 06:46:32;;;;;;;2.35;1.65;;;8.30;99.80;;;;;;10117358;28;20115;-65
2021/12/27 06:51:25;;;;;;;2.30;1.70;;;8.30;99.80;;;;;;10099738;28;20024;-76
2021/12/27 06:56:16;;;;;;;2.75;2.17;;;8.30;99.70;;;;;;10116263;28;20031;-66
2021/12/27 07:01:08;;;;;;;2.33;1.70;;;8.20;99.70;;;;;;10123619;28;20036;-67
2021/12/27 07:05:59;;;;;;;4.00;2.03;;;8.10;99.70;;;;;;10100695;28;20080;-67
2021/12/27 07:10:51;;;;;;;3.30;2.25;;;8.10;99.70;;;;;;10104137;28;20515;-69
2021/12/27 07:15:42;;;;;;;2.60;1.92;;;8.00;99.60;;;;;;10116475;28;20318;-64
2021/12/27 07:20:33;;;;;;;2.92;1.65;;;8.00;99.60;;;;;;10116139;28;20045;-70
2021/12/27 07:25:25;;;;;;;3.25;1.75;;;8.00;99.60;;;;;;10124986;28;20027;-71
2021/12/27 07:30:16;;;;;;;1.90;1.25;;;8.00;99.50;;;;;;10130780;28;20048;-70
2021/12/27 07:35:08;;;;;;;2.38;1.65;;;8.00;99.60;;;;;;10122274;28;20036;-70
2021/12/27 07:39:58;;;;;;;4.63;1.90;;;8.10;99.70;;;;;;10114392;28;20037;-66
2021/12/27 07:44:49;;;;;;;5.13;2.58;;;8.10;99.70;;;;;;10119824;28;20503;-65
2021/12/27 07:49:40;;;;;;;3.28;1.95;;;8.20;99.70;;;;;;10113918;28;20240;-64
2021/12/27 07:54:30;;;;;;;4.15;2.08;;;8.20;99.60;;;;;;10117191;28;20137;-66
2021/12/27 07:59:22;;;;;;;5.00;2.88;;;8.30;99.60;;;;;;10123436;28;20326;-66
2021/12/27 08:04:12;;;;;;;3.88;2.30;;;8.20;99.50;;;;;;10095514;28;20108;-66
2021/12/27 08:09:05;;;;;;;6.47;2.28;;;8.30;99.60;;;;;;10120500;28;20111;-66
2021/12/27 08:13:56;;;;;;;3.15;2.30;;;8.30;99.50;;;;;;10119567;28;20483;-66
2021/12/27 08:18:47;;;;;;;5.13;3.10;;;8.40;99.60;;;;;;10114421;28;20103;-65
2021/12/27 08:23:37;;;;;;;4.38;3.78;;;8.50;99.60;;;;;;10115630;28;20048;-66
2021/12/27 08:28:28;;;;;;;2.58;1.98;;;8.60;99.60;;;;;;10058714;28;20493;-66
2021/12/27 08:33:19;;;;;;;4.05;2.17;;;8.70;99.30;;;;;;10077143;28;20025;-64
2021/12/27 08:38:10;;;;;;;3.53;2.78;;;8.60;99.10;;;;;;10110058;28;20047;-63
2021/12/27 08:43:02;;;;;;;4.82;3.15;;;8.50;99.10;;;;;;10116526;28;20051;-63
2021/12/27 08:47:53;;;;;;;6.93;2.20;;;8.50;99.20;;;;;;10108271;28;20031;-65
2021/12/27 08:52:47;;;;;;;3.67;2.20;;;8.40;99.10;;;;;;10113452;28;20029;-66
2021/12/27 08:57:39;;;;;;;4.10;3.10;;;8.50;99.10;;;;;;10119417;28;20574;-65
2021/12/27 09:02:29;;;;;;;4.03;2.08;;;8.60;99.10;;;;;;10111331;28;20090;-64
2021/12/27 09:07:20;;;;;;;7.35;3.38;;;8.70;99.30;;;;;;10121641;28;20028;-67
2021/12/27 09:12:11;;;;;;;4.05;2.55;;;8.80;99.10;;;;;;10122194;28;20036;-64
2021/12/27 09:17:03;;;;;;;4.10;2.75;;;8.90;99.00;;;;;;10116115;28;20167;-63
2021/12/27 09:21:54;;;;;;;3.97;2.30;;;8.90;99.00;;;;;;10100201;28;20082;-65
2021/12/27 09:26:45;;;;;;;3.67;2.47;;;9.00;99.00;;;;;;10132134;28;20075;-65
2021/12/27 09:31:36;;;;;;;4.20;2.25;;;9.00;99.00;;;;;;10128652;28;20032;-68
2021/12/27 09:36:27;;;;;;;6.18;2.67;;;9.20;99.10;;;;;;10118986;28;20507;-71
2021/12/27 09:41:19;;;;;;;4.82;1.83;;;9.40;99.10;;;;;;10118213;28;20041;-67
2021/12/27 09:46:10;;;;;;;4.00;2.20;;;9.50;99.10;;;;;;10121232;28;20017;-70
2021/12/27 09:51:02;;;;;;;3.72;2.17;;;9.50;99.00;;;;;;10132526;28;20024;-67
2021/12/27 09:55:53;;;;;;;3.10;2.20;;;9.60;99.10;;;;;;10130395;28;20423;-69
2021/12/27 10:00:43;;;;;;;2.83;2.13;;;9.70;99.20;;;;;;10134524;28;20036;-66
2021/12/27 10:05:35;;;;;;;2.65;1.95;;;9.80;99.20;;;;;;10122951;28;20423;-65
2021/12/27 10:10:26;;;;;;;2.70;1.95;;;9.80;99.10;;;;;;10124811;28;20452;-69
2021/12/27 10:15:19;;;;;;;4.40;2.33;;;9.80;99.10;;;;;;10131487;28;20045;-65
2021/12/27 10:20:21;;;;;;;3.53;2.08;;;9.80;99.10;;;;;;10119285;28;20036;-65
2021/12/27 10:25:17;;;;;;;4.00;2.20;;;9.80;99.00;;;;;;10115034;28;20094;-63
2021/12/27 10:30:20;;;;;;;2.97;1.80;;;9.90;98.90;;;;;;10121195;28;20154;-66
2021/12/27 10:35:11;;;;;;;2.70;1.55;;;10.00;98.80;;;;;;10106792;28;20418;-66
2021/12/27 10:40:10;;;;;;;3.40;1.95;;;10.10;98.70;;;;;;10113884;28;20186;-67
2021/12/27 10:45:04;;;;;;;2.95;1.90;;;10.20;98.70;;;;;;10112036;28;20036;-71
2021/12/27 10:50:02;;;;;;;2.13;1.35;;;10.20;98.50;;;;;;10094267;28;20131;-67
2021/12/27 10:55:01;;;;;;;3.60;2.10;;;10.20;98.60;;;;;;10121503;28;20420;-65
2021/12/27 10:59:53;;;;;;;3.67;2.00;;;10.20;98.50;;;;;;10121612;28;20048;-64
2021/12/27 11:04:43;;;;;;;2.92;1.85;;;10.10;98.40;;;;;;10114816;28;20017;-64
2021/12/27 11:09:35;;;;;;;3.55;2.33;;;10.30;98.40;;;;;;10121161;28;20043;-67
2021/12/27 11:14:25;;;;;;;7.78;2.58;;;10.30;98.30;;;;;;10114969;28;20099;-62
2021/12/27 11:19:16;;;;;;;5.22;2.33;;;10.30;98.20;;;;;;10152927;28;20135;-64
2021/12/27 11:24:08;;;;;;;5.05;2.83;;;10.30;98.20;;;;;;10162995;28;20034;-66
2021/12/27 11:29:10;;;;;;;9.48;4.35;;;10.40;98.10;;;;;;10156974;28;20123;-67
2021/12/27 11:34:02;;;;;;;7.53;3.35;;;10.50;98.00;;;;;;10157623;28;20021;-68
2021/12/27 11:38:53;;;;;;;7.63;3.25;;;10.50;97.80;;;;;;10152843;28;20040;-70
2021/12/27 11:43:48;;;;;;;6.07;2.60;;;10.60;97.90;;;;;;10158576;28;20024;-72
2021/12/27 11:48:50;;;;;;;8.30;3.37;;;10.50;97.90;;;;;;10152293;28;20039;-75
2021/12/27 11:53:48;;;;;;;3.05;2.38;;;10.30;97.80;;;;;;10164262;28;20184;-68
2021/12/27 11:58:43;;;;;;;6.30;2.75;;;10.30;97.70;;;;;;10164857;28;20063;-68
2021/12/27 12:03:40;;;;;;;6.35;3.22;;;10.20;97.40;;;;;;10159445;28;20025;-69
2021/12/27 12:08:49;;;;;;;6.00;3.45;;;10.30;97.50;;;;;;10156400;28;20395;-69
2021/12/27 12:13:42;;;;;;;4.60;2.65;;;10.30;97.40;;;;;;10148580;28;20035;-67
2021/12/27 12:18:37;;;;;;;5.07;2.65;;;10.40;97.40;;;;;;10155930;28;20147;-69
2021/12/27 12:23:28;;;;;;;5.10;2.85;;;10.40;97.30;;;;;;10168527;28;20542;-68
2021/12/27 12:28:19;;;;;;;4.97;2.42;;;10.30;97.20;;;;;;10170055;28;20032;-68
2021/12/27 12:33:18;;;;;;;5.63;2.67;;;10.40;97.20;;;;;;10162039;28;20048;-69
2021/12/27 12:38:13;;;;;;;3.58;2.58;;;10.40;97.20;;;;;;10160429;28;20414;-68
2021/12/27 12:43:04;;;;;;;4.90;2.37;;;10.40;97.10;;;;;;10163755;28;20431;-67
2021/12/27 12:47:55;;;;;;;5.05;2.78;;;10.40;97.10;;;;;;10167913;28;20032;-67
2021/12/27 12:52:52;;;;;;;5.28;2.55;;;10.30;97.10;;;;;;10165686;28;20576;-68
2021/12/27 12:57:51;;;;;;;6.18;2.78;;;10.30;97.10;;;;;;10156286;28;20107;-67
2021/12/27 13:02:43;;;;;;;4.63;3.15;;;10.20;97.10;;;;;;10157104;28;20163;-67
2021/12/27 13:07:44;;;;;;;6.10;3.35;;;10.20;97.00;;;;;;10168869;28;20040;-65
2021/12/27 13:12:36;;;;;;;5.43;3.03;;;10.10;97.10;;;;;;10148206;28;20526;-65
2021/12/27 13:17:27;;;;;;;7.32;3.03;;;10.10;97.00;;;;;;10148726;28;20052;-63
2021/12/27 13:22:43;;;;;;;7.65;3.20;;;10.10;97.10;;;;;;10121220;28;20021;-63
2021/12/27 13:27:34;;;;;;;6.80;3.25;;;10.00;96.90;;;;;;10117284;28;20487;-63
2021/12/27 13:32:25;;;;;;;4.63;2.75;;;9.90;97.00;;;;;;10128195;28;20300;-64
2021/12/27 13:37:15;;;;;;;4.25;3.25;;;10.00;96.90;;;;;;10100707;28;20317;-69
2021/12/27 13:42:08;;;;;;;6.10;3.40;;;9.90;96.90;;;;;;10124297;28;20161;-63
2021/12/27 13:47:02;;;;;;;5.88;2.50;;;10.00;96.90;;;;;;10103269;28;20283;-63
2021/12/27 13:52:02;;;;;;;4.95;3.17;;;9.90;96.90;;;;;;10124060;28;20028;-66
2021/12/27 13:56:58;;;;;;;5.40;2.95;;;9.90;96.90;;;;;;10126001;28;20017;-64
2021/12/27 14:02:00;;;;;;;8.68;3.80;;;9.90;96.90;;;;;;10106838;28;20120;-64
2021/12/27 14:06:51;;;;;;;4.60;3.17;;;9.90;96.90;;;;;;10118063;28;20020;-73
2021/12/27 14:11:51;;;;;;;6.32;3.80;;;9.90;96.90;;;;;;10120060;28;20035;-67
2021/12/27 14:16:42;;;;;;;6.95;4.15;;;9.90;96.80;;;;;;10126314;28;20052;-68
2021/12/27 14:21:34;;;;;;;9.88;4.38;;;9.90;96.90;;;;;;10116008;28;20043;-70
2021/12/27 14:26:24;;;;;;;5.20;3.88;;;9.90;97.00;;;;;;10111364;28;20047;-67
2021/12/27 14:31:25;;;;;;;5.72;3.70;;;9.80;97.10;;;;;;10108876;28;20056;-69
2021/12/27 14:36:16;;;;;;;6.20;3.70;;;9.80;97.00;;;;;;10113765;28;20028;-71
2021/12/27 14:41:06;;;;;;;5.10;3.38;;;9.90;97.00;;;;;;10120459;28;20058;-66
2021/12/27 14:45:58;;;;;;;4.32;2.35;;;9.90;97.00;;;;;;10123378;28;20059;-68
2021/12/27 14:50:50;;;;;;;6.70;3.38;;;9.80;97.10;;;;;;10119256;28;20025;-66
2021/12/27 14:55:43;;;;;;;5.53;3.10;;;9.70;97.10;;;;;;10095707;28;20056;-66
2021/12/27 15:00:56;;;;;;;5.47;3.53;;;9.70;97.20;;;;;;10097931;28;20228;-67
2021/12/27 15:05:47;;;;;;;6.53;3.40;;;9.60;97.20;;;;;;10108559;28;20033;-67
2021/12/27 15:10:37;;;;;;;4.25;2.80;;;9.60;97.30;;;;;;10111138;28;20022;-68
2021/12/27 15:15:29;;;;;;;5.35;3.13;;;9.60;97.30;;;;;;10121870;28;20526;-64
2021/12/27 15:20:21;;;;;;;9.30;3.75;;;9.60;97.30;;;;;;10121292;28;20064;-65
2021/12/27 15:25:12;;;;;;;7.35;4.05;;;9.50;97.30;;;;;;10124699;28;20108;-67
2021/12/27 15:30:07;;;;;;;7.45;3.63;;;9.60;97.40;;;;;;10119150;28;20468;-67
2021/12/27 15:34:58;;;;;;;5.47;3.58;;;9.50;97.30;;;;;;10113339;28;20025;-71
2021/12/27 15:39:49;;;;;;;4.60;2.97;;;9.50;97.30;;;;;;10110535;28;20033;-70
2021/12/27 15:44:39;;;;;;;5.40;3.33;;;9.50;97.40;;;;;;10119461;28;20062;-68
2021/12/27 15:49:30;;;;;;;9.00;5.55;;;9.50;97.50;;;;;;10115172;28;20496;-68
2021/12/27 15:54:21;;;;;;;5.13;3.72;;;9.50;97.40;;;;;;10111491;28;20043;-68
2021/12/27 15:59:12;;;;;;;8.02;4.63;;;9.60;97.40;;;;;;10088344;28;20044;-62
2021/12/27 16:04:03;;;;;;;7.30;3.47;;;9.60;97.40;;;;;;10109613;28;20025;-68
2021/12/27 16:08:54;;;;;;;6.63;3.67;;;9.50;97.50;;;;;;10102587;28;20248;-70
2021/12/27 16:13:48;;;;;;;6.55;4.32;;;9.50;97.50;;;;;;10124471;28;20017;-73
2021/12/27 16:18:38;;;;;;;6.07;4.05;;;9.50;97.60;;;;;;10104257;28;20083;-75
2021/12/27 16:23:29;;;;;;;8.00;4.18;;;9.60;97.60;;;;;;10109194;28;20022;-69
2021/12/27 16:28:21;;;;;;;6.43;4.18;;;9.60;97.70;;;;;;10096228;28;20021;-71
2021/12/27 16:33:16;;;;;;;4.45;2.55;;;9.50;97.60;;;;;;10113521;28;20040;-72
2021/12/27 16:38:07;;;;;;;4.60;2.97;;;9.50;97.70;;;;;;10084656;28;20484;-71
2021/12/27 16:42:58;;;;;;;2.90;2.30;;;9.60;97.70;;;;;;10116109;28;20036;-66
2021/12/27 16:47:50;;;;;;;3.42;1.90;;;9.50;97.80;;;;;;10108872;28;20021;-67
2021/12/27 16:52:41;;;;;;;3.58;2.00;;;9.50;97.80;;;;;;10122479;28;20449;-61
2021/12/27 16:57:31;;;;;;;3.45;1.85;;;9.60;97.80;;;;;;10104394;28;20016;-62
2021/12/27 17:02:22;;;;;;;2.50;1.58;;;9.60;97.80;;;;;;10112997;28;20044;-67
2021/12/27 17:07:13;;;;;;;2.25;1.45;;;9.60;97.80;;;;;;10123148;28;20028;-70
2021/12/27 17:12:10;;;;;;;2.55;1.85;;;9.70;97.70;;;;;;10111608;28;20032;-70
2021/12/27 17:17:00;;;;;;;2.05;1.33;;;9.70;97.70;;;;;;10123668;28;20036;-68
2021/12/27 17:21:51;;;;;;;2.20;1.33;;;9.70;97.70;;;;;;10108837;28;20119;-68
2021/12/27 17:26:43;;;;;;;2.75;1.70;;;9.60;97.70;;;;;;10130909;28;20479;-64
2021/12/27 17:31:33;;;;;;;2.97;1.70;;;9.70;97.80;;;;;;10124356;28;20078;-68
2021/12/27 17:36:24;;;;;;;3.63;2.30;;;9.70;97.80;;;;;;10118197;28;20094;-69
2021/12/27 17:41:16;;;;;;;1.90;1.40;;;9.70;97.80;;;;;;10118292;28;20123;-66
2021/12/27 17:46:07;;;;;;;1.90;1.48;;;9.60;97.80;;;;;;10127079;28;20021;-68
2021/12/27 17:50:58;;;;;;;1.90;1.67;;;9.60;97.80;;;;;;10122224;28;20304;-65
2021/12/27 17:55:49;;;;;;;3.75;1.30;;;9.60;97.80;;;;;;10097681;28;20051;-66
2021/12/27 18:00:46;;;;;;;1.80;1.20;;;9.50;97.80;;;;;;10125928;28;20036;-75
2021/12/27 18:05:39;;;;;;;1.90;1.00;;;9.60;97.80;;;;;;10116126;28;20239;-72
2021/12/27 18:10:30;;;;;;;3.15;0.90;;;9.60;97.80;;;;;;10093605;28;20025;-64
2021/12/27 18:15:22;;;;;;;23.67;10.30;;;9.60;97.80;;;;;;10123218;28;20048;-68
2021/12/27 18:20:19;;;;;;;44.17;19.55;;;9.70;97.70;;;;;;10105297;28;20037;-67
2021/12/27 18:25:10;;;;;;;3.15;1.50;;;10.10;97.20;;;;;;10125775;28;20028;-65
2021/12/27 18:30:03;;;;;;;2.65;1.35;;;9.90;97.50;;;;;;10108482;28;20456;-71
2021/12/27 18:34:54;;;;;;;1.48;1.00;;;9.70;97.70;;;;;;10121232;28;20043;-70
2021/12/27 18:39:45;;;;;;;1.50;0.82;;;9.60;97.80;;;;;;10128416;28;20487;-76
2021/12/27 18:44:38;;;;;;;1.90;1.50;;;9.60;97.80;;;;;;10122046;28;20194;-77
2021/12/27 18:49:29;;;;;;;2.03;1.00;;;9.60;97.80;;;;;;10099013;28;20032;-72
2021/12/27 18:54:20;;;;;;;1.90;1.10;;;9.60;97.90;;;;;;10097992;28;20024;-70
2021/12/27 18:59:11;;;;;;;1.23;0.88;;;9.60;97.90;;;;;;10114740;28;20032;-72
2021/12/27 19:04:03;;;;;;;2.67;1.17;;;9.60;97.90;;;;;;10121360;28;20577;-74
2021/12/27 19:08:54;;;;;;;1.70;0.93;;;9.60;97.90;;;;;;10122037;28;20028;-70
2021/12/27 19:13:45;;;;;;;1.40;1.05;;;9.60;98.00;;;;;;10122793;28;20047;-71
2021/12/27 19:18:35;;;;;;;1.02;0.80;;;9.70;97.90;;;;;;10124472;28;20195;-71
2021/12/27 19:23:26;;;;;;;3.50;1.08;;;9.60;97.90;;;;;;10116305;28;20438;-71
2021/12/27 19:28:17;;;;;;;2.35;1.60;;;9.60;97.90;;;;;;10119691;28;20028;-70
2021/12/27 19:33:08;;;;;;;1.70;0.90;;;9.50;98.00;;;;;;10119957;28;20021;-65
2021/12/27 19:38:02;;;;;;;1.38;1.08;;;9.60;98.00;;;;;;10097847;28;20017;-70
2021/12/27 19:42:52;;;;;;;1.35;1.00;;;9.60;98.00;;;;;;10097990;28;20051;-69
2021/12/27 19:47:45;;;;;;;3.47;1.17;;;9.60;98.10;;;;;;10116464;28;20024;-70
2021/12/27 19:52:36;;;;;;;2.67;1.60;;;9.70;98.10;;;;;;10115290;28;20496;-72
2021/12/27 19:57:27;;;;;;;2.28;1.50;;;9.70;98.10;;;;;;10108639;28;20021;-73
2021/12/27 20:02:18;;;;;;;2.33;1.30;;;9.70;98.10;;;;;;10114237;28;20280;-75
2021/12/27 20:07:10;;;;;;;1.92;1.33;;;9.80;98.10;;;;;;10122527;28;20013;-73
2021/12/27 20:12:01;;;;;;;2.88;1.23;;;9.80;98.20;;;;;;10123391;28;20046;-76
2021/12/27 20:16:52;;;;;;;2.75;1.20;;;9.80;98.20;;;;;;10121230;28;20568;-79
2021/12/27 20:21:44;;;;;;;3.65;1.13;;;9.80;98.20;;;;;;10096638;28;20044;-69
2021/12/27 20:26:35;;;;;;;1.95;1.33;;;9.80;98.20;;;;;;10066838;28;20583;-66
2021/12/27 20:31:25;;;;;;;1.63;0.90;;;9.90;98.50;;;;;;10097190;28;20092;-69
2021/12/27 20:36:16;;;;;;;3.53;1.75;;;9.90;98.30;;;;;;10122996;28;20116;-67
2021/12/27 20:41:07;;;;;;;3.20;1.60;;;9.90;98.40;;;;;;10113203;28;20048;-69
2021/12/27 20:45:58;;;;;;;2.47;1.45;;;9.80;98.40;;;;;;10115715;28;20115;-69
2021/12/27 20:50:48;;;;;;;3.00;1.67;;;9.90;98.40;;;;;;10123993;28;20017;-70
2021/12/27 20:55:44;;;;;;;4.22;1.52;;;9.80;98.30;;;;;;10096930;28;21015;-63
2021/12/27 21:00:43;;;;;;;44.92;21.90;;;9.70;98.40;;;;;;10124979;28;20467;-70
2021/12/27 21:05:35;;;;;;;8.63;5.25;;;9.80;98.30;;;;;;10118483;28;20047;-66
2021/12/27 21:10:26;;;;;;;8.45;2.08;;;9.80;98.30;;;;;;10121699;28;20029;-69
2021/12/27 21:15:19;;;;;;;3.15;1.42;;;9.80;98.40;;;;;;10130614;28;20036;-72
2021/12/27 21:20:12;;;;;;;5.03;2.17;;;9.80;98.50;;;;;;10152598;28;20421;-70
2021/12/27 21:25:05;;;;;;;2.70;1.40;;;9.80;98.40;;;;;;10156788;28;20028;-70
2021/12/27 21:29:56;;;;;;;1.80;1.30;;;9.80;98.40;;;;;;10164825;28;20020;-72
2021/12/27 21:34:47;;;;;;;3.45;1.45;;;9.80;98.60;;;;;;10153361;28;20028;-69
2021/12/27 21:39:38;;;;;;;3.13;1.42;;;9.80;98.50;;;;;;10148279;28;20036;-69
2021/12/27 21:44:29;;;;;;;1.58;1.17;;;9.80;98.50;;;;;;10156619;28;20473;-71
2021/12/27 21:49:20;;;;;;;1.35;1.17;;;9.90;98.60;;;;;;10148828;28;20041;-73
2021/12/27 21:54:11;;;;;;;2.53;1.23;;;9.90;98.60;;;;;;10151529;28;20031;-74
2021/12/27 21:59:02;;;;;;;3.60;1.55;;;9.90;98.60;;;;;;10152422;28;20464;-72
2021/12/27 22:03:52;;;;;;;3.65;1.50;;;9.90;98.70;;;;;;10161635;28;20039;-68
2021/12/27 22:08:43;;;;;;;2.78;1.20;;;9.90;98.70;;;;;;10150539;28;20068;-73
2021/12/27 22:13:34;;;;;;;5.30;1.33;;;9.90;98.70;;;;;;10165135;28;20031;-70
2021/12/27 22:18:24;;;;;;;4.25;1.05;;;10.00;98.60;;;;;;10127644;28;20052;-69
2021/12/27 22:23:15;;;;;;;4.45;1.77;;;10.00;98.60;;;;;;10124841;28;20032;-68
2021/12/27 22:28:07;;;;;;;4.32;1.70;;;10.00;98.70;;;;;;10109317;28;20411;-69
2021/12/27 22:32:57;;;;;;;3.75;1.10;;;10.00;98.70;;;;;;10123422;28;20024;-69
2021/12/27 22:37:49;;;;;;;2.17;1.27;;;10.00;98.60;;;;;;10117596;28;20024;-73
2021/12/27 22:42:39;;;;;;;5.38;1.15;;;10.00;98.60;;;;;;10118494;28;20560;-70
2021/12/27 22:47:31;;;;;;;3.78;1.55;;;9.90;98.60;;;;;;10117828;28;20091;-71
2021/12/27 22:52:22;;;;;;;3.03;1.20;;;9.80;98.60;;;;;;10118298;28;20722;-71
2021/12/27 22:57:13;;;;;;;6.60;1.50;;;9.90;98.70;;;;;;10129443;28;20021;-69
2021/12/27 23:02:05;;;;;;;3.95;1.38;;;9.90;98.60;;;;;;10113576;28;20037;-69
2021/12/27 23:06:55;;;;;;;4.22;1.83;;;9.90;98.70;;;;;;10117527;28;20067;-70
2021/12/27 23:11:46;;;;;;;5.32;2.83;;;9.90;98.70;;;;;;10124327;28;20039;-70
2021/12/27 23:16:37;;;;;;;8.55;2.75;;;10.00;98.70;;;;;;10148118;28;20461;-68
2021/12/27 23:21:28;;;;;;;6.75;2.05;;;10.00;98.60;;;;;;10158478;28;20036;-68
2021/12/27 23:26:18;;;;;;;4.78;1.63;;;10.00;98.60;;;;;;10162653;28;20119;-69
2021/12/27 23:31:09;;;;;;;3.78;1.83;;;10.00;98.50;;;;;;10156418;28;20078;-67
2021/12/27 23:36:02;;;;;;;9.25;2.28;;;10.00;98.50;;;;;;10145500;28;20028;-69
2021/12/27 23:40:55;;;;;;;4.38;1.52;;;10.00;98.60;;;;;;10140221;28;20169;-70
2021/12/27 23:45:46;;;;;;;3.75;1.80;;;10.00;98.50;;;;;;10152258;28;20101;-69
2021/12/27 23:50:37;;;;;;;8.30;1.92;;;10.00;98.40;;;;;;10158520;28;20040;-69
2021/12/27 23:55:28;;;;;;;7.88;1.58;;;9.90;98.40;;;;;;10158153;28;20265;-72
